createdAt,value
2022-10-20T00:02:01.808Z,100665.85
2022-10-20T00:04:33.548Z,100667.38
2022-10-20T00:07:06.068Z,100671.23
2022-10-20T00:09:38.745Z,100676.23
2022-10-20T00:12:11.555Z,100675.55
2022-10-20T00:14:44.665Z,100668.77
2022-10-20T00:17:17.070Z,100682.63
2022-10-20T00:19:52.316Z,100682.52
2022-10-20T00:22:25.044Z,100669.58
2022-10-20T00:24:57.556Z,100667.98
2022-10-20T00:27:30.578Z,100691.20
2022-10-20T00:30:03.138Z,100687.36
2022-10-20T00:32:36.026Z,100701.83
2022-10-20T00:35:09.902Z,100703.77
2022-10-20T00:37:42.718Z,100700.95
2022-10-20T00:40:15.830Z,100707.66
2022-10-20T00:42:49.188Z,100698.48
2022-10-20T00:45:24.149Z,100700.23
2022-10-20T00:48:06.941Z,100707.25
2022-10-20T00:50:45.728Z,100711.95
2022-10-20T00:53:23.573Z,100710.09
2022-10-20T00:56:00.100Z,100716.05
2022-10-20T00:58:32.999Z,100713.52
2022-10-20T01:01:06.135Z,100697.64
2022-10-20T01:03:46.887Z,100699.44
2022-10-20T01:06:22.790Z,100709.87
2022-10-20T01:08:56.686Z,100715.90
2022-10-20T01:12:05.231Z,100712.44
2022-10-20T01:14:49.830Z,100717.39
2022-10-20T01:17:31.739Z,100714.90
2022-10-20T01:20:23.696Z,100714.34
2022-10-20T01:23:08.181Z,100731.87
2022-10-20T01:25:52.318Z,100730.24
2022-10-20T01:28:42.179Z,100736.35
2022-10-20T01:31:32.307Z,100728.42
2022-10-20T01:34:19.778Z,100740.98
2022-10-20T01:37:28.455Z,100730.81
2022-10-20T01:40:19.589Z,100747.80
2022-10-20T01:42:54.581Z,100748.41
2022-10-20T01:45:30.561Z,100756.77
2022-10-20T01:48:07.249Z,100753.82
2022-10-20T01:50:42.430Z,100758.90
2022-10-20T01:53:15.385Z,100777.13
2022-10-20T01:55:48.259Z,100779.92
2022-10-20T01:59:04.326Z,100776.48
2022-10-20T02:01:57.546Z,100783.09
2022-10-20T02:04:55.877Z,100785.56
2022-10-20T02:07:31.989Z,100788.25
2022-10-20T02:10:20.080Z,100799.34
2022-10-20T02:13:04.589Z,100795.33
2022-10-20T02:15:41.039Z,100797.27
2022-10-20T02:18:16.244Z,100800.85
2022-10-20T02:20:52.129Z,100800.49
2022-10-20T02:23:25.288Z,100805.88
2022-10-20T02:25:59.653Z,100802.48
2022-10-20T02:28:35.529Z,100811.71
2022-10-20T02:31:09.090Z,100800.33
2022-10-20T02:33:44.087Z,100803.85
2022-10-20T02:36:20.869Z,100819.70
2022-10-20T02:38:53.603Z,100807.02
2022-10-20T02:41:27.204Z,100819.89
2022-10-20T02:44:00.072Z,100820.58
2022-10-20T02:46:32.773Z,100826.23
2022-10-20T02:49:06.015Z,100820.65
2022-10-20T02:51:38.592Z,100825.47
2022-10-20T02:54:11.288Z,100833.85
2022-10-20T02:56:44.213Z,100838.83
2022-10-20T02:59:17.779Z,100845.91
2022-10-20T03:01:52.729Z,100848.21
2022-10-20T03:07:03.510Z,100847.61
2022-10-20T03:09:36.039Z,100846.58
2022-10-20T03:12:08.766Z,100855.41
2022-10-20T03:14:43.314Z,100858.38
2022-10-20T03:17:16.946Z,100862.86
2022-10-20T03:19:50.131Z,100863.33
2022-10-20T03:25:12.767Z,100874.16
2022-10-20T03:27:46.010Z,100873.20
2022-10-20T03:30:18.919Z,100878.27
2022-10-20T03:32:52.089Z,100884.84
2022-10-20T03:35:24.648Z,100888.71
2022-10-20T03:38:01.520Z,100889.11
2022-10-20T03:40:34.474Z,100891.71
2022-10-20T03:43:07.559Z,100893.72
2022-10-20T03:45:45.964Z,100890.95
2022-10-20T03:48:19.361Z,100896.23
2022-10-20T03:50:52.001Z,100903.20
2022-10-20T03:53:24.207Z,100903.55
2022-10-20T03:55:56.895Z,100897.70
2022-10-20T03:58:29.661Z,100896.30
2022-10-20T04:01:03.296Z,100887.39
2022-10-20T04:03:36.128Z,100901.83
2022-10-20T04:06:09.331Z,100903.39
2022-10-20T04:08:42.069Z,100895.83
2022-10-20T04:11:15.787Z,100886.63
2022-10-20T04:13:48.846Z,100890.31
2022-10-20T04:16:21.204Z,100879.77
2022-10-20T04:18:55.395Z,100882.02
2022-10-20T04:21:28.485Z,100867.80
2022-10-20T04:24:01.095Z,100874.64
2022-10-20T04:26:33.841Z,100867.58
2022-10-20T04:29:06.866Z,100886.50
2022-10-20T04:31:39.859Z,100887.59
2022-10-20T04:34:12.359Z,100888.55
2022-10-20T04:36:45.154Z,100892.85
2022-10-20T04:39:17.889Z,100894.91
2022-10-20T04:41:50.466Z,100887.55
2022-10-20T04:44:23.862Z,100893.79
2022-10-20T04:46:59.858Z,100893.76
2022-10-20T04:49:32.469Z,100908.01
2022-10-20T04:52:05.549Z,100910.61
2022-10-20T04:54:38.103Z,100922.42
2022-10-20T04:57:11.537Z,100927.16
2022-10-20T04:59:44.130Z,100919.44
2022-10-20T05:02:16.864Z,100930.94
2022-10-20T05:04:50.042Z,100931.58
2022-10-20T05:07:22.808Z,100937.45
2022-10-20T05:09:55.487Z,100938.91
2022-10-20T05:12:28.967Z,100944.98
2022-10-20T05:15:01.919Z,100945.40
2022-10-20T05:17:35.139Z,100946.95
2022-10-20T05:20:08.965Z,100943.27
2022-10-20T05:22:42.055Z,100942.45
2022-10-20T05:28:09.159Z,100951.89
2022-10-20T05:33:15.374Z,100974.58
2022-10-20T05:35:48.289Z,100990.23
2022-10-20T05:38:21.323Z,100998.66
2022-10-20T05:40:55.954Z,101004.40
2022-10-20T05:43:29.130Z,101002.43
2022-10-20T05:46:01.920Z,101005.13
2022-10-20T05:48:37.347Z,101020.26
2022-10-20T05:51:21.069Z,101027.27
2022-10-20T05:53:56.750Z,101024.73
2022-10-20T05:56:34.060Z,101031.63
2022-10-20T05:59:07.605Z,101046.83
2022-10-20T06:01:49.840Z,101043.76
2022-10-20T06:04:24.911Z,101035.23
2022-10-20T06:06:58.696Z,101038.05
2022-10-20T06:09:31.440Z,101038.16
2022-10-20T06:12:04.490Z,101045.16
2022-10-20T06:14:37.558Z,101046.70
2022-10-20T06:17:11.324Z,101048.98
2022-10-20T06:19:44.602Z,101064.04
2022-10-20T06:22:17.717Z,101065.66
2022-10-20T06:24:51.268Z,101069.48
2022-10-20T06:27:24.196Z,101066.77
2022-10-20T06:29:56.899Z,101081.38
2022-10-20T06:32:29.643Z,101083.46
2022-10-20T06:35:03.050Z,101077.89
2022-10-20T06:37:36.415Z,101100.05
2022-10-20T06:40:09.739Z,101090.65
2022-10-20T06:42:42.467Z,101101.38
2022-10-20T06:45:17.854Z,101108.43
2022-10-20T06:47:51.481Z,101105.23
2022-10-20T06:50:24.228Z,101098.64
2022-10-20T06:52:56.963Z,101098.95
2022-10-20T06:55:29.902Z,101116.11
2022-10-20T06:58:04.073Z,101113.17
2022-10-20T07:00:37.553Z,101106.20
2022-10-20T07:03:10.767Z,101109.27
2022-10-20T07:05:44.441Z,101107.05
2022-10-20T07:08:17.449Z,101107.33
2022-10-20T07:10:50.935Z,101112.06
2022-10-20T07:13:24.335Z,101107.20
2022-10-20T07:15:58.443Z,101113.84
2022-10-20T07:18:32.329Z,101118.38
2022-10-20T07:21:08.214Z,101118.09
2022-10-20T07:23:41.461Z,101125.88
2022-10-20T07:26:25.427Z,101135.67
2022-10-20T07:29:00.224Z,101135.95
2022-10-20T07:31:35.225Z,101134.20
2022-10-20T07:34:27.434Z,101130.08
2022-10-20T07:37:02.967Z,101129.74
2022-10-20T07:39:35.949Z,101126.56
2022-10-20T07:42:09.068Z,101127.80
2022-10-20T07:44:41.780Z,101114.38
2022-10-20T07:47:15.062Z,101124.95
2022-10-20T07:49:47.955Z,101117.51
2022-10-20T07:52:21.091Z,101117.30
2022-10-20T07:55:02.469Z,101115.98
2022-10-20T07:57:49.784Z,101110.08
2022-10-20T08:00:23.192Z,101113.77
2022-10-20T08:02:56.657Z,101115.52
2022-10-20T08:05:30.666Z,101110.20
2022-10-20T08:08:04.072Z,101101.69
2022-10-20T08:10:37.749Z,101110.75
2022-10-20T08:13:11.943Z,101101.21
2022-10-20T08:15:47.829Z,101101.72
2022-10-20T08:18:22.702Z,101101.45
2022-10-20T08:20:55.512Z,101095.89
2022-10-20T08:23:28.747Z,101088.33
2022-10-20T08:26:02.500Z,101089.85
2022-10-20T08:28:35.826Z,101103.75
2022-10-20T08:31:09.746Z,101103.11
2022-10-20T08:33:42.678Z,101094.20
2022-10-20T08:36:16.726Z,101102.26
2022-10-20T08:38:50.374Z,101094.17
2022-10-20T08:41:38.721Z,101093.83
2022-10-20T08:44:31.301Z,101096.45
2022-10-20T08:47:18.807Z,101096.02
2022-10-20T08:49:53.200Z,101099.33
2022-10-20T08:52:27.744Z,101105.27
2022-10-20T08:55:01.294Z,101112.04
2022-10-20T08:57:36.999Z,101116.59
2022-10-20T09:00:24.061Z,101110.17
2022-10-20T09:02:57.914Z,101116.56
2022-10-20T09:05:36.319Z,101119.70
2022-10-20T09:08:09.219Z,101097.77
2022-10-20T09:10:53.355Z,101116.81
2022-10-20T09:13:29.369Z,101109.52
2022-10-20T09:16:40.804Z,101120.06
2022-10-20T09:19:25.435Z,101120.05
2022-10-20T09:22:05.053Z,101110.61
2022-10-20T09:24:38.797Z,101118.77
2022-10-20T09:27:35.670Z,101112.08
2022-10-20T09:30:27.662Z,101120.38
2022-10-20T09:33:04.579Z,101124.55
2022-10-20T09:35:41.602Z,101124.77
2022-10-20T09:38:24.649Z,101124.35
2022-10-20T09:41:04.200Z,101123.69
2022-10-20T09:43:39.480Z,101123.30
2022-10-20T09:46:14.070Z,101133.99
2022-10-20T09:48:51.035Z,101114.79
2022-10-20T09:51:28.058Z,101116.22
2022-10-20T09:54:18.126Z,101111.16
2022-10-20T09:56:53.233Z,101115.05
2022-10-20T09:59:36.187Z,101116.54
2022-10-20T10:02:28.859Z,101111.88
2022-10-20T10:05:22.301Z,101122.41
2022-10-20T10:08:02.314Z,101116.52
2022-10-20T10:10:35.469Z,101124.67
2022-10-20T10:13:24.698Z,101125.50
2022-10-20T10:16:11.432Z,101120.05
2022-10-20T10:18:49.465Z,101117.88
2022-10-20T10:21:22.828Z,101128.80
2022-10-20T10:23:58.381Z,101139.79
2022-10-20T10:26:40.183Z,101134.96
2022-10-20T10:29:27.195Z,101134.88
2022-10-20T10:32:18.823Z,101132.39
2022-10-20T10:35:24.643Z,101129.77
2022-10-20T10:37:58.579Z,101126.51
2022-10-20T10:40:35.802Z,101117.43
2022-10-20T10:43:34.820Z,101115.41
2022-10-20T10:46:23.585Z,101117.33
2022-10-20T10:49:08.441Z,101108.69
2022-10-20T10:52:16.204Z,101122.14
2022-10-20T10:55:30.613Z,101118.52
2022-10-20T10:58:29.203Z,101118.50
2022-10-20T11:01:22.196Z,101112.65
2022-10-20T11:04:17.749Z,101107.01
2022-10-20T11:07:14.214Z,101095.06
2022-10-20T11:10:22.933Z,101116.05
2022-10-20T11:13:15.636Z,101112.77
2022-10-20T11:16:02.387Z,101106.14
2022-10-20T11:18:58.475Z,101106.09
2022-10-20T11:21:39.854Z,101113.69
2022-10-20T11:24:41.035Z,101120.88
2022-10-20T11:27:26.554Z,101111.71
2022-10-20T11:30:09.904Z,101117.67
2022-10-20T11:33:15.119Z,101116.45
2022-10-20T11:35:51.143Z,101112.44
2022-10-20T11:38:44.819Z,101108.31
2022-10-20T11:41:45.972Z,101111.13
2022-10-20T11:44:30.622Z,101115.35
2022-10-20T11:47:18.083Z,101117.98
2022-10-20T11:49:51.115Z,101106.41
2022-10-20T11:52:49.468Z,101120.70
2022-10-20T11:55:44.423Z,101116.52
2022-10-20T11:58:28.613Z,101131.63
2022-10-20T12:01:48.788Z,101119.13
2022-10-20T12:04:42.198Z,101130.29
2022-10-20T12:07:17.532Z,101131.52
2022-10-20T12:09:58.663Z,101145.39
2022-10-20T12:12:55.233Z,101135.23
2022-10-20T12:15:32.140Z,101126.17
2022-10-20T12:18:19.625Z,101136.28
2022-10-20T12:20:54.723Z,101131.14
2022-10-20T12:23:49.986Z,101135.58
2022-10-20T12:26:44.599Z,101126.11
2022-10-20T12:29:35.134Z,101129.13
2022-10-20T12:32:27.816Z,101142.90
2022-10-20T12:35:03.131Z,101143.95
2022-10-20T12:37:42.242Z,101134.38
2022-10-20T12:40:26.728Z,101134.71
2022-10-20T12:42:59.824Z,101139.98
2022-10-20T12:45:44.836Z,101147.81
2022-10-20T12:48:26.716Z,101145.09
2022-10-20T12:51:09.083Z,101148.09
2022-10-20T12:53:42.465Z,101154.62
2022-10-20T12:56:21.383Z,101144.61
2022-10-20T12:59:40.833Z,101155.52
2022-10-20T13:02:14.832Z,101157.55
2022-10-20T13:05:05.944Z,101146.45
2022-10-20T13:07:50.317Z,101150.59
2022-10-20T13:10:33.918Z,101164.10
2022-10-20T13:13:06.242Z,101161.26
2022-10-20T13:15:48.049Z,101155.63
2022-10-20T13:18:38.798Z,101150.98
2022-10-20T13:21:32.091Z,101160.97
2022-10-20T13:24:17.411Z,101156.20
2022-10-20T13:27:00.360Z,101150.98
2022-10-20T13:29:51.921Z,101160.02
2022-10-20T13:33:18.181Z,101164.10
2022-10-20T13:36:25.777Z,101164.67
2022-10-20T13:39:15.389Z,101176.20
2022-10-20T13:42:12.014Z,101176.21
2022-10-20T13:45:05.411Z,101177.58
2022-10-20T13:47:51.508Z,101177.20
2022-10-20T13:50:29.121Z,101188.36
2022-10-20T13:53:07.153Z,101187.46
2022-10-20T13:56:04.687Z,101195.19
2022-10-20T13:58:37.601Z,101175.20
2022-10-20T14:01:25.014Z,101176.18
2022-10-20T14:03:57.944Z,101184.19
2022-10-20T14:06:40.513Z,101181.02
2022-10-20T14:09:20.940Z,101199.34
2022-10-20T14:12:08.140Z,101189.65
2022-10-20T14:14:47.063Z,101177.99
2022-10-20T14:17:24.884Z,101184.80
2022-10-20T14:20:26.345Z,101183.75
2022-10-20T14:23:01.490Z,101197.27
2022-10-20T14:25:35.171Z,101191.26
2022-10-20T14:28:08.583Z,101199.88
2022-10-20T14:30:42.280Z,101205.75
2022-10-20T14:33:17.668Z,101196.27
2022-10-20T14:35:54.969Z,101203.18
2022-10-20T14:38:39.604Z,101196.59
2022-10-20T14:41:12.630Z,101206.50
2022-10-20T14:43:54.475Z,101201.85
2022-10-20T14:46:40.157Z,101194.34
2022-10-20T14:49:19.578Z,101202.79
2022-10-20T14:52:22.064Z,101205.14
2022-10-20T14:54:54.408Z,101207.85
2022-10-20T14:57:38.761Z,101215.20
2022-10-20T15:00:30.372Z,101210.13
2022-10-20T15:03:07.385Z,101208.42
2022-10-20T15:05:48.861Z,101206.08
2022-10-20T15:08:29.629Z,101200.15
2022-10-20T15:11:02.435Z,101213.85
2022-10-20T15:13:36.299Z,101208.23
2022-10-20T15:16:50.276Z,101213.40
2022-10-20T15:19:29.663Z,101207.39
2022-10-20T15:24:52.687Z,101210.21
2022-10-20T15:27:25.621Z,101221.77
2022-10-20T15:29:58.229Z,101219.61
2022-10-20T15:32:30.818Z,101223.73
2022-10-20T15:35:03.601Z,101212.50
2022-10-20T15:37:37.064Z,101225.23
2022-10-20T15:40:09.981Z,101227.63
2022-10-20T15:42:42.812Z,101230.40
2022-10-20T15:45:19.431Z,101233.89
2022-10-20T15:47:52.109Z,101246.57
2022-10-20T15:50:25.095Z,101251.98
2022-10-20T15:52:57.950Z,101250.60
2022-10-20T15:55:35.311Z,101253.21
2022-10-20T15:58:08.228Z,101258.11
2022-10-20T16:00:41.271Z,101252.64
2022-10-20T16:03:20.378Z,101265.55
2022-10-20T16:05:53.512Z,101254.99
2022-10-20T16:08:27.587Z,101272.59
2022-10-20T16:11:00.379Z,101274.88
2022-10-20T16:13:34.795Z,101274.23
2022-10-20T16:16:08.314Z,101284.09
2022-10-20T16:18:40.981Z,101294.62
2022-10-20T16:21:13.631Z,101299.95
2022-10-20T16:23:46.312Z,101304.23
2022-10-20T16:26:21.559Z,101304.05
2022-10-20T16:28:54.246Z,101304.20
2022-10-20T16:31:27.215Z,101313.20
2022-10-20T16:34:02.321Z,101319.73
2022-10-20T16:36:35.695Z,101313.38
2022-10-20T16:39:09.133Z,101321.78
2022-10-20T16:41:42.065Z,101320.98
2022-10-20T16:44:15.872Z,101319.21
2022-10-20T16:46:48.830Z,101319.84
2022-10-20T16:49:21.429Z,101325.23
2022-10-20T16:51:54.414Z,101330.50
2022-10-20T16:54:27.714Z,101338.70
2022-10-20T16:57:00.627Z,101339.76
2022-10-20T16:59:33.443Z,101341.23
2022-10-20T17:02:06.207Z,101345.71
2022-10-20T17:04:40.531Z,101350.95
2022-10-20T17:07:13.738Z,101348.97
2022-10-20T17:09:47.167Z,101349.82
2022-10-20T17:12:19.947Z,101348.30
2022-10-20T17:14:52.983Z,101339.02
2022-10-20T17:17:26.061Z,101353.27
2022-10-20T17:19:58.779Z,101358.20
2022-10-20T17:22:31.044Z,101359.41
2022-10-20T17:25:04.696Z,101360.80
2022-10-20T17:27:37.773Z,101359.03
2022-10-20T17:30:12.136Z,101358.64
2022-10-20T17:32:44.807Z,101360.48
2022-10-20T17:35:17.290Z,101355.83
2022-10-20T17:37:50.152Z,101364.42
2022-10-20T17:40:23.030Z,101361.40
2022-10-20T17:42:55.759Z,101373.34
2022-10-20T17:45:28.412Z,101374.98
2022-10-20T17:48:01.383Z,101368.45
2022-10-20T17:50:34.325Z,101379.30
2022-10-20T17:53:07.463Z,101370.11
2022-10-20T17:55:40.750Z,101375.40
2022-10-20T17:58:13.907Z,101371.77
2022-10-20T18:00:55.891Z,101371.94
2022-10-20T18:03:31.988Z,101375.13
2022-10-20T18:06:12.933Z,101384.21
2022-10-20T18:08:47.887Z,101385.32
2022-10-20T18:11:23.773Z,101374.02
2022-10-20T18:14:01.023Z,101383.27
2022-10-20T18:16:36.326Z,101384.65
2022-10-20T18:19:15.964Z,101382.94
2022-10-20T18:21:49.584Z,101392.98
2022-10-20T18:24:22.628Z,101405.16
2022-10-20T18:26:55.531Z,101402.67
2022-10-20T18:29:32.807Z,101410.38
2022-10-20T18:32:06.058Z,101412.16
2022-10-20T18:34:39.374Z,101398.05
2022-10-20T18:37:15.846Z,101398.41
2022-10-20T18:39:49.073Z,101398.14
2022-10-20T18:42:21.882Z,101403.67
2022-10-20T18:44:54.834Z,101411.17
2022-10-20T18:47:28.119Z,101412.05
2022-10-20T18:50:01.194Z,101414.35
2022-10-20T18:52:35.046Z,101420.33
2022-10-20T18:55:09.125Z,101425.09
2022-10-20T18:57:42.660Z,101428.23
2022-10-20T19:00:16.399Z,101431.87
2022-10-20T19:03:01.644Z,101437.80
2022-10-20T19:05:39.977Z,101437.02
2022-10-20T19:08:14.385Z,101444.21
2022-10-20T19:10:51.591Z,101442.88
2022-10-20T19:13:26.901Z,101437.11
2022-10-20T19:16:02.197Z,101453.13
2022-10-20T19:18:36.301Z,101457.81
2022-10-20T19:21:10.603Z,101465.60
2022-10-20T19:23:46.265Z,101464.71
2022-10-20T19:26:22.757Z,101469.89
2022-10-20T19:29:01.934Z,101471.73
2022-10-20T19:31:39.307Z,101475.71
2022-10-20T19:34:29.097Z,101477.94
2022-10-20T19:37:03.130Z,101485.30
2022-10-20T19:39:42.789Z,101488.88
2022-10-20T19:42:15.965Z,101477.01
2022-10-20T19:44:48.937Z,101488.44
2022-10-20T19:47:22.290Z,101491.86
2022-10-20T19:49:55.186Z,101500.89
2022-10-20T19:52:28.198Z,101511.33
2022-10-20T19:55:01.774Z,101508.59
2022-10-20T19:57:34.893Z,101512.02
2022-10-20T20:00:08.808Z,101503.39
2022-10-20T20:02:41.320Z,101515.48
2022-10-20T20:05:14.447Z,101516.44
2022-10-20T20:07:47.961Z,101518.64
2022-10-20T20:10:21.650Z,101522.23
2022-10-20T20:12:55.146Z,101514.50
2022-10-20T20:15:31.368Z,101526.92
2022-10-20T20:18:06.160Z,101529.98
2022-10-20T20:20:42.022Z,101535.14
2022-10-20T20:23:34.699Z,101535.89
2022-10-20T20:26:16.371Z,101537.36
2022-10-20T20:28:50.222Z,101527.08
2022-10-20T20:31:25.399Z,101540.77
2022-10-20T20:33:59.478Z,101535.48
2022-10-20T20:36:33.249Z,101537.98
2022-10-20T20:39:08.611Z,101540.27
2022-10-20T20:41:42.357Z,101543.33
2022-10-20T20:44:15.983Z,101548.69
2022-10-20T20:46:49.280Z,101548.45
2022-10-20T20:49:22.669Z,101550.23
2022-10-20T20:51:59.715Z,101546.90
2022-10-20T20:54:33.620Z,101540.61
2022-10-20T20:57:06.634Z,101542.71
2022-10-20T20:59:44.290Z,101540.98
2022-10-20T21:02:25.769Z,101543.89
2022-10-20T21:04:59.584Z,101543.98
2022-10-20T21:07:33.306Z,101546.01
2022-10-20T21:10:06.478Z,101537.54
2022-10-20T21:12:39.793Z,101542.33
2022-10-20T21:15:13.767Z,101540.09
2022-10-20T21:17:47.434Z,101550.62
2022-10-20T21:20:24.489Z,101549.80
2022-10-20T21:22:58.783Z,101540.73
2022-10-20T21:25:31.616Z,101543.02
2022-10-20T21:28:08.510Z,101550.08
2022-10-20T21:30:43.148Z,101545.05
2022-10-20T21:33:16.122Z,101539.79
2022-10-20T21:35:52.778Z,101550.20
2022-10-20T21:38:29.222Z,101558.66
2022-10-20T21:41:06.318Z,101559.99
2022-10-20T21:43:40.896Z,101562.43
2022-10-20T21:46:32.901Z,101554.91
2022-10-20T21:49:07.740Z,101542.92
2022-10-20T21:51:46.045Z,101561.16
2022-10-20T21:57:00.702Z,101544.31
2022-10-20T21:59:35.224Z,101564.66
2022-10-20T22:02:15.325Z,101567.20
2022-10-20T22:04:47.761Z,101567.45
2022-10-20T22:07:19.187Z,101574.00
2022-10-20T22:09:53.167Z,101557.33
2022-10-20T22:12:26.258Z,101576.77
2022-10-20T22:14:59.802Z,101556.04
2022-10-20T22:17:32.802Z,101580.77
2022-10-20T22:20:05.275Z,101579.76
2022-10-20T22:22:38.300Z,101579.80
2022-10-20T22:25:11.787Z,101579.69
2022-10-20T22:27:46.571Z,101559.16
2022-10-20T22:30:19.650Z,101571.77
2022-10-20T22:32:52.244Z,101595.05
2022-10-20T22:35:25.216Z,101601.25
2022-10-20T22:37:57.731Z,101599.85
2022-10-20T22:40:30.405Z,101588.49
2022-10-20T22:43:03.376Z,101599.30
2022-10-20T22:45:36.506Z,101586.21
2022-10-20T22:48:10.278Z,101588.34
2022-10-20T22:50:43.732Z,101598.98
2022-10-20T22:53:16.548Z,101589.05
2022-10-20T22:55:50.144Z,101603.75
2022-10-20T22:58:30.084Z,101605.55
2022-10-20T23:01:07.129Z,101592.83
2022-10-20T23:03:40.551Z,101600.34
2022-10-20T23:06:16.609Z,101608.83
2022-10-20T23:08:54.577Z,101600.89
2022-10-20T23:11:27.228Z,101596.38
2022-10-20T23:13:59.957Z,101600.27
2022-10-20T23:16:32.417Z,101602.10
2022-10-20T23:19:04.662Z,101613.66
2022-10-20T23:21:37.506Z,101614.94
2022-10-20T23:24:10.320Z,101614.64
2022-10-20T23:26:43.102Z,101613.63
2022-10-20T23:29:15.841Z,101612.10
2022-10-20T23:31:48.422Z,101601.16
2022-10-20T23:34:21.408Z,101610.84
2022-10-20T23:36:54.219Z,101608.61
2022-10-20T23:39:26.972Z,101612.53
2022-10-20T23:42:04.824Z,101623.67
2022-10-20T23:44:43.279Z,101610.98
2022-10-20T23:47:16.108Z,101616.27
2022-10-20T23:49:52.048Z,101616.48
2022-10-20T23:52:24.977Z,101609.00
2022-10-20T23:54:57.759Z,101612.70
2022-10-20T23:57:30.832Z,101603.80
